Time;durP1;ratioP1;P1;durP2;ratioP2;P2;SDS_P1;SDS_P2;PMS_P1;PMS_P2;Temp;Humidity;BMP_temperature;BMP_pressure;BME280_temperature;BME280_humidity;BME280_pressure;Samples;Min_cycle;Max_cycle;Signal;HPM_P1;HPM_P2
2023/04/26 00:01:07;;;;;;;6.87;3.80;;;;;;;-145.18;100.00;46719.00;5065594;28;20029;-71
2023/04/26 00:03:32;;;;;;;7.33;4.23;;;;;;;-145.18;100.00;46722.91;5069294;28;20032;-71
2023/04/26 00:06:04;;;;;;;16.97;4.67;;;;;;;-145.18;100.00;46724.84;5069730;28;20273;-71
2023/04/26 00:08:29;;;;;;;10.23;4.93;;;;;;;-145.18;100.00;46720.94;5068823;28;20123;-71
2023/04/26 00:10:55;;;;;;;11.67;5.20;;;;;;;-145.18;100.00;46722.91;5069299;28;20360;-71
2023/04/26 00:13:20;;;;;;;11.67;4.97;;;;;;;-145.18;100.00;46724.84;5069297;28;20064;-71
2023/04/26 00:15:46;;;;;;;11.00;4.50;;;;;;;-145.18;100.00;46719.00;5069092;28;20024;-71
2023/04/26 00:18:11;;;;;;;9.80;4.70;;;;;;;-145.18;100.00;46719.00;5069558;28;20033;-71
2023/04/26 00:20:37;;;;;;;9.67;4.27;;;;;;;-145.18;100.00;46720.94;5064008;28;20493;-71
2023/04/26 00:23:03;;;;;;;10.97;3.97;;;;;;;-145.18;100.00;46717.03;5069241;28;20028;-71
2023/04/26 00:25:28;;;;;;;12.23;4.90;;;;;;;-145.18;100.00;46722.91;5038014;28;20114;-71
2023/04/26 00:27:54;;;;;;;13.87;4.80;;;;;;;-145.18;100.00;46720.94;5029352;28;20064;-71
2023/04/26 00:30:21;;;;;;;12.63;4.87;;;;;;;-145.18;100.00;46720.94;5030198;28;20044;-71
2023/04/26 00:32:46;;;;;;;10.00;5.57;;;;;;;-145.18;100.00;46722.91;5068980;28;20400;-71
2023/04/26 00:35:12;;;;;;;10.53;4.37;;;;;;;-145.18;100.00;46720.94;5069405;28;20270;-71
2023/04/26 00:37:37;;;;;;;10.03;4.73;;;;;;;-145.18;100.00;46720.94;5072964;28;20029;-71
2023/04/26 00:40:05;;;;;;;15.87;5.20;;;;;;;-145.18;100.00;46717.03;5058422;28;20108;-71
2023/04/26 00:42:30;;;;;;;8.00;4.50;;;;;;;-145.18;100.00;46720.94;5052885;28;20405;-71
2023/04/26 00:44:56;;;;;;;12.17;5.00;;;;;;;-145.18;100.00;46722.91;5052626;28;20270;-71
2023/04/26 00:47:23;;;;;;;15.33;5.37;;;;;;;-145.18;100.00;46719.00;5052457;28;20032;-71
2023/04/26 00:49:49;;;;;;;13.13;5.00;;;;;;;-145.18;100.00;46715.09;5052409;28;20033;-71
2023/04/26 00:52:14;;;;;;;15.27;5.23;;;;;;;-145.18;100.00;46720.94;5052540;28;20308;-70
2023/04/26 00:54:40;;;;;;;9.93;4.60;;;;;;;-145.18;100.00;46722.91;5052172;28;20087;-70
2023/04/26 00:57:08;;;;;;;8.43;4.87;;;;;;;-145.18;100.00;46715.09;5052395;28;20145;-71
2023/04/26 00:59:35;;;;;;;10.40;4.67;;;;;;;-145.18;100.00;46719.00;5063866;28;20380;-71
2023/04/26 01:02:02;;;;;;;17.20;5.97;;;;;;;-145.18;100.00;46719.00;5072128;28;20289;-71
2023/04/26 01:04:29;;;;;;;12.03;5.17;;;;;;;-145.18;100.00;46717.03;5072278;28;20614;-71
2023/04/26 01:06:55;;;;;;;12.30;5.17;;;;;;;-145.18;100.00;46717.03;5072021;28;20277;-71
2023/04/26 01:09:21;;;;;;;13.03;5.40;;;;;;;-145.18;100.00;46719.00;5071853;28;20577;-71
2023/04/26 01:11:47;;;;;;;12.27;4.33;;;;;;;-145.18;100.00;46719.00;5072086;28;20292;-70
2023/04/26 01:14:14;;;;;;;10.30;4.50;;;;;;;-145.18;100.00;46717.03;5071869;28;20048;-70
2023/04/26 01:16:40;;;;;;;7.93;4.60;;;;;;;-145.18;100.00;46722.91;5071890;28;20044;-71
2023/04/26 01:19:11;;;;;;;7.87;4.47;;;;;;;-145.18;100.00;46719.00;5070997;28;20303;-72
2023/04/26 01:21:37;;;;;;;14.10;6.07;;;;;;;-145.18;100.00;46719.00;5070308;28;20036;-72
2023/04/26 01:24:03;;;;;;;11.97;5.17;;;;;;;-145.18;100.00;46717.03;5072013;28;20258;-72
2023/04/26 01:26:29;;;;;;;15.00;5.40;;;;;;;-145.18;100.00;46720.94;5057449;28;20082;-72
2023/04/26 01:28:54;;;;;;;9.03;4.30;;;;;;;-145.18;100.00;46719.00;5051414;28;20294;-72
2023/04/26 01:31:20;;;;;;;6.93;3.80;;;;;;;-145.18;100.00;46719.00;5051752;28;20472;-72
2023/04/26 01:33:45;;;;;;;10.17;4.07;;;;;;;-145.18;100.00;46722.91;5051879;28;20040;-72
2023/04/26 01:36:10;;;;;;;13.00;5.33;;;;;;;-145.18;100.00;46719.00;5051853;28;20037;-72
2023/04/26 01:38:36;;;;;;;10.87;4.40;;;;;;;-145.18;100.00;46720.94;5059552;28;20127;-73
2023/04/26 01:41:02;;;;;;;12.50;4.97;;;;;;;-145.18;100.00;46719.00;5071289;28;20032;-73
2023/04/26 01:43:27;;;;;;;11.67;5.27;;;;;;;-145.18;100.00;46717.03;5058690;28;20482;-73
2023/04/26 01:45:53;;;;;;;10.23;5.00;;;;;;;-145.18;100.00;46719.00;5033634;28;20041;-73
2023/04/26 01:48:18;;;;;;;13.00;4.67;;;;;;;-145.18;100.00;46717.03;5051711;28;20083;-73
2023/04/26 01:50:43;;;;;;;8.33;3.97;;;;;;;-145.18;100.00;46719.00;5051076;28;20037;-73
2023/04/26 01:53:09;;;;;;;10.17;4.97;;;;;;;-145.18;100.00;46717.03;5051479;28;20079;-74
2023/04/26 01:55:34;;;;;;;14.20;5.77;;;;;;;-145.18;100.00;46717.03;5051190;28;20036;-74
2023/04/26 01:58:00;;;;;;;13.83;5.37;;;;;;;-145.18;100.00;46713.13;5051527;28;20049;-73
2023/04/26 02:03:00;;;;;;;14.18;4.90;;;;;;;-145.18;100.00;46717.03;5176559;23;20051;-72
2023/04/26 02:05:26;;;;;;;13.33;5.37;;;;;;;-145.18;100.00;46713.13;4933840;29;20488;-72
2023/04/26 02:07:51;;;;;;;9.87;5.40;;;;;;;-145.18;100.00;46719.00;4949899;29;20412;-71
2023/04/26 02:10:16;;;;;;;13.80;6.50;;;;;;;-145.18;100.00;46713.13;4953172;29;20395;-71
2023/04/26 02:12:42;;;;;;;9.23;5.03;;;;;;;-145.18;100.00;46709.22;4952910;29;20051;-71
2023/04/26 02:15:08;;;;;;;10.20;5.40;;;;;;;-145.18;100.00;46711.19;4952969;29;20055;-71
2023/04/26 02:17:33;;;;;;;16.13;5.70;;;;;;;-145.18;100.00;46715.09;4953311;29;20027;-71
2023/04/26 02:19:59;;;;;;;8.97;5.17;;;;;;;-145.18;100.00;46713.13;4951838;29;20312;-71
2023/04/26 02:22:25;;;;;;;14.17;5.80;;;;;;;-145.18;100.00;46711.19;4952670;29;20050;-71
2023/04/26 02:24:51;;;;;;;10.27;5.00;;;;;;;-145.18;100.00;46715.09;4952547;29;20031;-71
2023/04/26 02:27:17;;;;;;;12.53;4.77;;;;;;;-145.18;100.00;46713.13;4967764;28;20270;-71
2023/04/26 02:29:42;;;;;;;10.30;4.27;;;;;;;-145.18;100.00;46715.09;4952869;29;20803;-71
2023/04/26 02:32:08;;;;;;;10.40;4.50;;;;;;;-145.18;100.00;46713.13;4952399;29;20635;-70
2023/04/26 02:34:33;;;;;;;13.23;4.50;;;;;;;-145.18;100.00;46709.22;4952998;29;20039;-70
2023/04/26 02:36:58;;;;;;;8.83;4.30;;;;;;;-145.18;100.00;46715.09;4952389;29;20134;-70
2023/04/26 02:39:24;;;;;;;11.40;4.53;;;;;;;-145.18;100.00;46715.09;4952338;29;20074;-70
2023/04/26 02:41:50;;;;;;;15.63;4.50;;;;;;;-145.18;100.00;46713.13;4952334;29;20512;-70
2023/04/26 02:44:15;;;;;;;8.73;4.30;;;;;;;-145.18;100.00;46711.19;4952780;29;20278;-69
2023/04/26 02:46:41;;;;;;;9.27;5.20;;;;;;;-145.18;100.00;46711.19;4952548;29;20110;-70
2023/04/26 02:49:06;;;;;;;9.53;4.73;;;;;;;-145.18;100.00;46713.13;4952331;29;20045;-70
2023/04/26 02:51:32;;;;;;;9.47;4.57;;;;;;;-145.18;100.00;46711.19;4952442;29;20043;-70
2023/04/26 02:53:58;;;;;;;8.60;4.03;;;;;;;-145.18;100.00;46715.09;4951448;29;20023;-68
2023/04/26 02:56:24;;;;;;;14.18;4.63;;;;;;;-145.18;100.00;46715.09;4952564;29;20051;-68
2023/04/26 02:58:50;;;;;;;7.97;4.03;;;;;;;-145.18;100.00;46709.22;4951615;28;20419;-68
2023/04/26 03:01:15;;;;;;;10.30;5.27;;;;;;;-145.18;100.00;46711.19;4948097;29;20031;-67
2023/04/26 03:03:41;;;;;;;9.37;4.77;;;;;;;-145.18;100.00;46711.19;4932215;29;20056;-67
2023/04/26 03:06:06;;;;;;;9.37;5.27;;;;;;;-145.18;100.00;46715.09;4933162;29;20067;-67
2023/04/26 03:08:33;;;;;;;11.77;4.57;;;;;;;-145.18;100.00;46715.09;4933029;29;20049;-67
2023/04/26 03:10:59;;;;;;;12.02;5.07;;;;;;;-145.18;100.00;46709.22;4933189;29;20043;-67
2023/04/26 03:13:25;;;;;;;10.83;5.33;;;;;;;-145.18;100.00;46709.22;4932805;29;20032;-66
2023/04/26 03:15:52;;;;;;;11.73;5.07;;;;;;;-145.18;100.00;46709.22;4932787;29;20730;-66
2023/04/26 03:18:17;;;;;;;13.90;5.35;;;;;;;-145.18;100.00;46711.19;4932826;29;20028;-66
2023/04/26 03:20:45;;;;;;;9.10;4.70;;;;;;;-145.18;100.00;46713.13;4932964;29;20127;-67
2023/04/26 03:23:10;;;;;;;9.27;4.75;;;;;;;-145.18;100.00;46709.22;4932582;29;20020;-66
2023/04/26 03:25:36;;;;;;;9.17;4.50;;;;;;;-145.18;100.00;46705.31;4932853;29;20344;-66
2023/04/26 03:28:02;;;;;;;10.00;4.73;;;;;;;-145.18;100.00;46705.31;4932304;29;20084;-66
2023/04/26 03:30:28;;;;;;;12.73;5.00;;;;;;;-145.18;100.00;46709.22;4933230;29;20082;-66
2023/04/26 03:32:54;;;;;;;9.27;4.80;;;;;;;-145.18;100.00;46707.28;4932411;29;20274;-66
2023/04/26 03:35:20;;;;;;;9.88;4.88;;;;;;;-145.18;100.00;46709.22;4933062;29;20042;-66
2023/04/26 03:37:45;;;;;;;11.00;4.60;;;;;;;-145.18;100.00;46709.22;4932652;29;20106;-66
2023/04/26 03:40:11;;;;;;;9.00;4.43;;;;;;;-145.18;100.00;46709.22;4932760;29;20046;-66
2023/04/26 03:42:36;;;;;;;11.33;4.60;;;;;;;-145.18;100.00;46705.31;4932387;29;20128;-66
2023/04/26 03:45:02;;;;;;;8.20;3.93;;;;;;;-145.18;100.00;46707.28;4932708;29;20050;-66
2023/04/26 03:47:31;;;;;;;8.35;3.35;;;;;;;-145.18;100.00;46703.38;4932626;29;20401;-66
2023/04/26 03:49:56;;;;;;;7.90;2.80;;;;;;;-145.18;100.00;46699.47;4932478;29;20044;-66
2023/04/26 03:52:22;;;;;;;6.80;3.70;;;;;;;-145.18;100.00;46703.38;4932066;29;20032;-66
2023/04/26 03:54:47;;;;;;;5.33;2.50;;;;;;;-145.18;100.00;46707.28;4932976;29;20095;-66
2023/04/26 03:57:13;;;;;;;9.37;3.80;;;;;;;-145.18;100.00;46703.38;4932206;29;20035;-66
2023/04/26 03:59:38;;;;;;;12.70;4.53;;;;;;;-145.18;100.00;46695.56;4932808;29;20122;-66
2023/04/26 04:02:04;;;;;;;8.90;4.03;;;;;;;-145.18;100.00;46699.47;4931880;29;20048;-66
2023/04/26 04:04:29;;;;;;;11.20;4.00;;;;;;;-145.18;100.00;46707.28;4932538;29;20043;-66
2023/04/26 04:06:54;;;;;;;15.50;4.20;;;;;;;-145.18;100.00;46701.41;4932586;29;20040;-66
2023/04/26 04:09:20;;;;;;;9.00;4.57;;;;;;;-145.18;100.00;46699.47;4932363;29;20511;-66
2023/04/26 04:11:45;;;;;;;6.97;3.57;;;;;;;-145.18;100.00;46707.28;4934959;29;20062;-66
2023/04/26 04:14:11;;;;;;;6.77;3.20;;;;;;;-145.18;100.00;46701.41;4935125;29;20027;-66
2023/04/26 04:16:36;;;;;;;6.77;3.87;;;;;;;-145.18;100.00;46703.38;4931996;29;20031;-66
2023/04/26 04:19:02;;;;;;;12.07;5.07;;;;;;;-145.18;100.00;46705.31;4918368;29;20032;-66
2023/04/26 04:21:28;;;;;;;10.65;4.88;;;;;;;-145.18;100.00;46703.38;4936174;29;20117;-66
2023/04/26 04:23:53;;;;;;;10.93;4.47;;;;;;;-145.18;100.00;46709.22;4935488;29;20039;-66
2023/04/26 04:26:19;;;;;;;7.80;3.80;;;;;;;-145.18;100.00;46703.38;4936114;29;20464;-66
2023/04/26 04:28:46;;;;;;;11.48;4.55;;;;;;;-145.18;100.00;46707.28;4935649;29;20044;-66
2023/04/26 04:31:12;;;;;;;8.63;4.30;;;;;;;-145.18;100.00;46695.56;4935483;29;20399;-66
2023/04/26 04:33:37;;;;;;;9.67;3.73;;;;;;;-145.18;100.00;46701.41;4935411;29;20489;-66
2023/04/26 04:36:03;;;;;;;9.73;4.30;;;;;;;-145.18;100.00;46701.41;4935229;29;20282;-66
2023/04/26 04:38:28;;;;;;;5.80;3.43;;;;;;;-145.18;100.00;46699.47;4918397;29;20040;-66
2023/04/26 04:40:54;;;;;;;7.73;4.30;;;;;;;-145.18;100.00;46693.59;4935719;29;20433;-66
2023/04/26 04:43:20;;;;;;;9.37;4.70;;;;;;;-145.18;100.00;46699.47;4934897;29;20485;-66
2023/04/26 04:45:46;;;;;;;7.00;4.45;;;;;;;-145.18;100.00;46699.47;4935133;29;20067;-66
2023/04/26 04:48:12;;;;;;;9.88;3.83;;;;;;;-145.18;100.00;46697.50;4931921;29;20027;-66
2023/04/26 04:50:38;;;;;;;5.70;3.30;;;;;;;-145.18;100.00;46695.56;4935680;29;20046;-67
2023/04/26 04:53:03;;;;;;;4.88;2.97;;;;;;;-145.18;100.00;46695.56;4934236;29;20032;-66
2023/04/26 04:55:29;;;;;;;8.13;3.30;;;;;;;-145.18;100.00;46693.59;4916902;29;20133;-66
2023/04/26 04:57:55;;;;;;;5.03;3.10;;;;;;;-145.18;100.00;46691.66;4916066;29;20066;-67
2023/04/26 05:00:20;;;;;;;6.60;3.27;;;;;;;-145.18;100.00;46687.75;4920877;29;20015;-66
2023/04/26 05:02:46;;;;;;;5.73;2.97;;;;;;;-145.18;100.00;46693.59;4924778;29;20127;-66
2023/04/26 05:05:11;;;;;;;6.77;3.37;;;;;;;-145.18;100.00;46693.59;4923578;29;20083;-66
2023/04/26 05:07:37;;;;;;;8.60;4.63;;;;;;;-145.18;100.00;46687.75;4924872;29;20062;-66
2023/04/26 05:10:03;;;;;;;10.57;4.93;;;;;;;-145.18;100.00;46689.69;4924390;29;20044;-66
2023/04/26 05:12:28;;;;;;;15.17;4.50;;;;;;;-145.18;100.00;46689.69;4923232;29;20038;-66
2023/04/26 05:14:53;;;;;;;10.93;4.83;;;;;;;-145.18;100.00;46689.69;4925461;29;20277;-67
2023/04/26 05:17:19;;;;;;;9.43;3.80;;;;;;;-145.18;100.00;46685.78;4924178;29;20034;-67
2023/04/26 05:19:44;;;;;;;14.63;4.97;;;;;;;-145.18;100.00;46683.84;4923687;29;20106;-67
2023/04/26 05:22:11;;;;;;;8.67;4.73;;;;;;;-145.18;100.00;46685.78;4924817;29;20043;-67
2023/04/26 05:24:37;;;;;;;15.03;4.77;;;;;;;-145.18;100.00;46683.84;4923438;29;20064;-67
2023/04/26 05:27:03;;;;;;;14.47;5.30;;;;;;;-145.18;100.00;46683.84;4928253;29;20278;-67
2023/04/26 05:29:29;;;;;;;13.43;5.78;;;;;;;-145.18;100.00;46685.78;4928250;29;20047;-68
2023/04/26 05:31:55;;;;;;;9.17;5.23;;;;;;;-145.18;100.00;46681.88;4931800;29;20036;-68
2023/04/26 05:34:22;;;;;;;16.17;5.97;;;;;;;-145.18;100.00;46681.88;4932737;29;20268;-69
2023/04/26 05:36:48;;;;;;;11.00;4.97;;;;;;;-145.18;100.00;46681.88;4932987;29;20470;-70
2023/04/26 05:39:13;;;;;;;11.03;4.63;;;;;;;-145.18;100.00;46679.94;4924279;29;20283;-70
2023/04/26 05:41:38;;;;;;;14.00;5.03;;;;;;;-145.18;100.00;46677.97;4920406;29;20027;-71
2023/04/26 05:44:05;;;;;;;7.17;4.07;;;;;;;-145.18;100.00;46683.84;4932562;29;20433;-71
2023/04/26 05:46:30;;;;;;;10.23;4.73;;;;;;;-145.18;100.00;46683.84;4900050;29;20056;-72
2023/04/26 05:48:55;;;;;;;10.10;5.00;;;;;;;-145.18;100.00;46679.94;4932193;29;20445;-72
2023/04/26 05:51:21;;;;;;;15.97;5.27;;;;;;;-145.18;100.00;46683.84;4932625;29;20068;-73
2023/04/26 05:53:46;;;;;;;12.20;5.70;;;;;;;-145.18;100.00;46681.88;4915283;29;20031;-72
2023/04/26 05:56:12;;;;;;;10.23;5.20;;;;;;;-145.18;100.00;46679.94;4932474;29;20051;-71
2023/04/26 05:58:37;;;;;;;17.60;7.13;;;;;;;-145.18;100.00;46681.88;4933763;29;20142;-71
2023/04/26 06:01:03;;;;;;;15.20;6.97;;;;;;;-145.18;100.00;46683.84;4934153;29;20039;-71
2023/04/26 06:03:28;;;;;;;13.83;7.33;;;;;;;-145.18;100.00;46679.94;4916352;29;20087;-70
2023/04/26 06:05:53;;;;;;;17.03;7.47;;;;;;;-145.18;100.00;46683.84;4933662;29;20142;-70
2023/04/26 06:08:19;;;;;;;22.57;7.53;;;;;;;-145.18;100.00;46679.94;4934025;29;20035;-70
2023/04/26 06:10:45;;;;;;;18.40;8.13;;;;;;;-145.18;100.00;46683.84;4934315;29;20039;-69
2023/04/26 06:13:11;;;;;;;18.60;8.13;;;;;;;-145.18;100.00;46681.88;4933789;29;20102;-69
2023/04/26 06:15:36;;;;;;;14.73;7.70;;;;;;;-145.18;100.00;46679.94;4934164;29;20278;-69
2023/04/26 06:18:04;;;;;;;18.80;8.40;;;;;;;-145.18;100.00;46681.88;4933481;29;20413;-68
2023/04/26 06:20:29;;;;;;;17.30;8.57;;;;;;;-145.18;100.00;46683.84;4934062;29;20405;-68
2023/04/26 06:22:54;;;;;;;21.50;8.57;;;;;;;-145.18;100.00;46683.84;4933671;29;20278;-68
2023/04/26 06:25:20;;;;;;;15.87;8.20;;;;;;;-145.18;100.00;46683.84;4934179;29;20058;-68
2023/04/26 06:27:46;;;;;;;16.17;8.00;;;;;;;-145.18;100.00;46683.84;4933452;29;20039;-69
2023/04/26 06:30:11;;;;;;;15.93;7.80;;;;;;;-145.18;100.00;46687.75;4933224;29;20118;-68
2023/04/26 06:32:39;;;;;;;27.40;9.03;;;;;;;-145.18;100.00;46683.84;4932662;29;20040;-68
2023/04/26 06:35:05;;;;;;;18.37;7.43;;;;;;;-145.18;100.00;46681.88;4932314;29;20032;-68
2023/04/26 06:37:31;;;;;;;13.93;8.30;;;;;;;-145.18;100.00;46681.88;4933273;29;20286;-69
2023/04/26 06:39:56;;;;;;;15.43;7.70;;;;;;;-145.18;100.00;46687.75;4933012;29;20715;-68
2023/04/26 06:42:22;;;;;;;17.23;7.13;;;;;;;-145.18;100.00;46685.78;4933073;29;20087;-68
2023/04/26 06:44:47;;;;;;;17.87;7.13;;;;;;;-145.18;100.00;46689.69;4932403;29;20059;-69
2023/04/26 06:47:13;;;;;;;14.13;6.67;;;;;;;-145.18;100.00;46693.59;4933206;29;20054;-69
2023/04/26 06:49:38;;;;;;;18.87;7.13;;;;;;;-145.18;100.00;46693.59;4933222;29;20047;-69
2023/04/26 06:52:05;;;;;;;12.37;6.13;;;;;;;-145.18;100.00;46689.69;4933297;29;20067;-69
2023/04/26 06:54:32;;;;;;;11.90;5.27;;;;;;;-145.18;100.00;46693.59;4933084;29;20114;-69
2023/04/26 06:56:57;;;;;;;9.70;6.00;;;;;;;-145.18;100.00;46691.66;4933084;29;20266;-69
2023/04/26 06:59:23;;;;;;;10.00;5.57;;;;;;;-145.18;100.00;46691.66;4933300;29;20350;-69
2023/04/26 07:01:48;;;;;;;11.93;5.60;;;;;;;-145.18;100.00;46687.75;4932724;29;20075;-69
2023/04/26 07:04:15;;;;;;;15.47;5.60;;;;;;;-145.18;100.00;46672.13;4932556;29;20561;-69
2023/04/26 07:06:41;;;;;;;10.30;5.60;;;;;;;-145.18;100.00;46633.06;4933375;29;20568;-69
2023/04/26 07:09:06;;;;;;;11.47;5.67;;;;;;;-145.18;100.00;46578.34;4932631;29;20298;-69
2023/04/26 07:11:32;;;;;;;10.63;5.37;;;;;;;-145.18;100.00;46572.50;4933068;29;20032;-69
2023/04/26 07:13:57;;;;;;;13.57;6.17;;;;;;;-145.18;100.00;46574.44;4932652;29;20028;-69
2023/04/26 07:16:23;;;;;;;15.70;6.40;;;;;;;-145.18;100.00;46595.94;4933228;29;20055;-69
2023/04/26 07:18:48;;;;;;;12.53;5.73;;;;;;;-145.18;100.00;46603.75;4932807;29;20036;-69
2023/04/26 07:21:15;;;;;;;15.10;6.67;;;;;;;-145.18;100.00;46623.28;4931502;29;20035;-69
2023/04/26 07:23:40;;;;;;;11.23;5.77;;;;;;;-145.18;100.00;46629.13;4932794;29;20401;-69
2023/04/26 07:26:06;;;;;;;12.50;5.27;;;;;;;-145.18;100.00;46631.09;4932743;29;20270;-69
2023/04/26 07:28:32;;;;;;;16.30;5.00;;;;;;;-145.18;100.00;46642.81;4932913;29;20040;-69
2023/04/26 07:30:59;;;;;;;13.70;4.10;;;;;;;-145.18;100.00;46662.34;4932681;29;20032;-69
2023/04/26 07:33:24;;;;;;;10.73;4.07;;;;;;;-145.18;100.00;46674.06;4932655;29;20046;-69
2023/04/26 07:35:58;;;;;;;10.17;3.43;;;;;;;-145.18;100.00;46707.28;4932896;29;20274;-69
2023/04/26 07:38:24;;;;;;;10.07;3.20;;;;;;;-145.18;100.00;46769.78;4932746;29;20074;-69
2023/04/26 07:40:50;;;;;;;12.17;3.83;;;;;;;-145.18;100.00;46806.91;4932622;29;20309;-69
2023/04/26 07:43:16;;;;;;;8.77;3.17;;;;;;;-145.18;100.00;46818.63;4931488;29;20032;-70
2023/04/26 07:45:41;;;;;;;8.77;2.87;;;;;;;-145.18;100.00;46879.19;4935768;29;20272;-69
2023/04/26 07:48:07;;;;;;;8.50;2.67;;;;;;;-145.18;100.00;46879.19;4936316;29;20031;-70
2023/04/26 07:50:32;;;;;;;15.80;3.07;;;;;;;-145.18;100.00;46961.22;4936885;29;20551;-69
2023/04/26 07:52:58;;;;;;;9.43;3.23;;;;;;;-145.18;100.00;47264.03;4936107;29;20028;-69
2023/04/26 07:55:23;;;;;;;10.00;3.17;;;;;;;-145.18;100.00;47519.97;4936754;29;20122;-70
2023/04/26 07:57:49;;;;;;;8.43;2.93;;;;;;;-145.18;100.00;47410.56;4935206;29;20032;-69
2023/04/26 08:00:17;;;;;;;16.00;4.17;;;;;;;-145.18;100.00;47242.53;4919284;29;20061;-70
2023/04/26 08:02:45;;;;;;;8.40;3.10;;;;;;;-145.18;100.00;47250.34;4935159;29;20064;-69
2023/04/26 08:05:11;;;;;;;7.53;2.47;;;;;;;-145.18;100.00;47303.09;4936279;29;20353;-70
2023/04/26 08:07:37;;;;;;;14.10;2.97;;;;;;;-145.18;100.00;47355.84;4936349;29;20289;-70
2023/04/26 08:10:02;;;;;;;7.93;2.40;;;;;;;-145.18;100.00;47633.28;4935596;29;20949;-70
2023/04/26 08:12:28;;;;;;;4.63;1.80;;;;;;;-145.18;100.00;47588.34;4936319;29;20114;-70
2023/04/26 08:14:53;;;;;;;7.13;1.87;;;;;;;-145.18;100.00;47562.94;4936056;29;20039;-70
2023/04/26 08:17:18;;;;;;;3.27;1.83;;;;;;;-145.18;100.00;47559.03;4936278;29;20035;-70
2023/04/26 08:19:44;;;;;;;4.97;1.77;;;;;;;-145.18;100.00;47561.00;4935842;29;20111;-70
2023/04/26 08:22:09;;;;;;;5.93;1.90;;;;;;;-145.18;100.00;47527.78;4935999;29;20565;-70
2023/04/26 08:24:34;;;;;;;7.37;1.83;;;;;;;-145.18;100.00;47525.81;4935963;29;20035;-70
2023/04/26 08:27:00;;;;;;;11.47;2.53;;;;;;;-145.18;100.00;47537.53;4935967;29;20031;-70
2023/04/26 08:29:26;;;;;;;4.50;1.90;;;;;;;-145.18;100.00;47488.69;4935666;29;20134;-70
2023/04/26 08:31:52;;;;;;;6.37;1.97;;;;;;;-145.18;100.00;47516.06;4935755;29;20127;-70
2023/04/26 08:34:17;;;;;;;7.10;2.03;;;;;;;-145.18;100.00;47508.22;4935850;29;20278;-70
2023/04/26 08:36:43;;;;;;;4.93;1.83;;;;;;;-145.18;100.00;47512.16;4935968;29;20027;-70
2023/04/26 08:39:08;;;;;;;5.77;1.90;;;;;;;-145.18;100.00;47480.88;4935172;29;20576;-70
2023/04/26 08:41:56;;;;;;;8.53;2.57;;;;;;;-145.18;100.00;47469.16;4935786;29;20039;-70
2023/04/26 08:44:23;;;;;;;8.70;2.10;;;;;;;-145.18;100.00;47465.25;4935658;29;20544;-70
2023/04/26 08:46:56;;;;;;;9.27;2.30;;;;;;;-145.18;100.00;47463.31;4935593;29;20278;-69
2023/04/26 08:49:46;;;;;;;5.60;2.00;;;;;;;-145.18;100.00;47467.22;4935437;29;20294;-70
2023/04/26 08:52:13;;;;;;;7.10;1.93;;;;;;;-145.18;100.00;47492.59;4935515;29;20646;-71
2023/04/26 08:54:39;;;;;;;4.10;2.10;;;;;;;-145.18;100.00;47508.22;4935444;29;20278;-71
2023/04/26 08:57:08;;;;;;;3.73;1.87;;;;;;;-145.18;100.00;47500.41;4934727;29;20270;-71
2023/04/26 08:59:38;;;;;;;7.53;1.70;;;;;;;-145.18;100.00;47465.25;4935113;29;20312;-71
2023/04/26 09:02:05;;;;;;;6.30;2.20;;;;;;;-145.18;100.00;47490.66;4935112;29;20302;-71
2023/04/26 09:04:31;;;;;;;6.60;1.90;;;;;;;-145.18;100.00;47476.97;4935198;29;20273;-71
2023/04/26 09:07:02;;;;;;;8.70;2.67;;;;;;;-145.18;100.00;47486.75;4935333;29;20976;-71
2023/04/26 09:09:40;;;;;;;7.57;2.80;;;;;;;-145.18;100.00;47471.13;4934924;29;20388;-71
2023/04/26 09:12:06;;;;;;;1.70;1.10;;;;;;;-145.18;100.00;47471.13;4917795;29;20282;-71
2023/04/26 09:14:32;;;;;;;1.60;0.80;;;;;;;-145.18;100.00;47488.69;4935058;29;20374;-71
2023/04/26 09:16:57;;;;;;;1.57;1.17;;;;;;;-145.18;100.00;47500.41;4935007;29;20353;-71
2023/04/26 09:19:37;;;;;;;7.00;1.00;;;;;;;-145.18;100.00;47518.00;4934998;29;20053;-71
2023/04/26 09:22:03;;;;;;;4.47;1.00;;;;;;;-145.18;100.00;47504.31;4934866;29;20409;-71
2023/04/26 09:24:46;;;;;;;3.67;1.80;;;;;;;-145.18;100.00;47514.09;4935066;29;20285;-71
2023/04/26 09:27:11;;;;;;;7.00;1.77;;;;;;;-145.18;100.00;47525.81;4933044;29;20405;-71
2023/04/26 09:29:37;;;;;;;6.07;1.90;;;;;;;-145.18;100.00;47510.19;4925208;29;20329;-71
2023/04/26 09:32:02;;;;;;;6.20;2.43;;;;;;;-145.18;100.00;47514.09;4934729;29;20039;-71
2023/04/26 09:34:29;;;;;;;3.93;2.17;;;;;;;-145.18;100.00;47502.38;4934805;29;20036;-71
2023/04/26 09:36:55;;;;;;;4.80;1.97;;;;;;;-145.18;100.00;47496.50;4934581;29;20098;-71
2023/04/26 09:39:34;;;;;;;8.60;1.73;;;;;;;-145.18;100.00;47492.59;4917532;29;20628;-71
2023/04/26 09:42:00;;;;;;;7.20;2.00;;;;;;;-145.18;100.00;47502.38;4934560;29;20341;-71
2023/04/26 09:44:28;;;;;;;11.40;1.70;;;;;;;-145.18;100.00;47500.41;4934580;29;20341;-71
2023/04/26 09:47:11;;;;;;;5.70;2.03;;;;;;;-145.18;100.00;47488.69;4934186;29;20278;-71
2023/04/26 09:49:44;;;;;;;9.23;2.43;;;;;;;-145.18;100.00;47506.28;4934391;29;20712;-71
2023/04/26 09:52:10;;;;;;;7.97;2.10;;;;;;;-145.18;100.00;47494.56;4934430;29;20804;-71
2023/04/26 09:54:39;;;;;;;5.20;1.53;;;;;;;-145.18;100.00;47484.78;4934400;29;20417;-71
2023/04/26 09:57:05;;;;;;;5.10;2.00;;;;;;;-145.18;100.00;47482.84;4933880;29;20034;-71
2023/04/26 09:59:40;;;;;;;8.73;2.20;;;;;;;-145.18;100.00;47494.56;4934248;29;20369;-72
2023/04/26 10:02:12;;;;;;;4.80;2.33;;;;;;;-145.18;100.00;47478.94;4934006;29;20063;-71
2023/04/26 10:04:38;;;;;;;5.70;2.30;;;;;;;-145.18;100.00;47484.78;4934045;29;20282;-71
2023/04/26 10:07:04;;;;;;;8.93;2.33;;;;;;;-145.18;100.00;47467.22;4933956;29;20324;-71
2023/04/26 10:09:31;;;;;;;7.77;2.07;;;;;;;-145.18;100.00;47486.75;4932595;29;20036;-71
2023/04/26 10:11:58;;;;;;;7.10;2.40;;;;;;;-145.18;100.00;47463.31;4933932;29;20270;-71
2023/04/26 10:14:24;;;;;;;5.27;2.13;;;;;;;-145.18;100.00;47469.16;4934356;29;20297;-71
2023/04/26 10:16:51;;;;;;;5.57;1.93;;;;;;;-145.18;100.00;47471.13;4933931;29;20310;-71
2023/04/26 10:19:18;;;;;;;5.50;2.10;;;;;;;-145.18;100.00;47494.56;4933644;29;20094;-71
2023/04/26 10:21:45;;;;;;;8.37;2.00;;;;;;;-145.18;100.00;47473.06;4933913;29;20324;-71
2023/04/26 10:24:11;;;;;;;8.67;2.10;;;;;;;-145.18;100.00;47463.31;4933040;29;20274;-72
2023/04/26 10:26:51;;;;;;;7.73;2.10;;;;;;;-145.18;100.00;47447.66;4933802;29;20644;-72
2023/04/26 10:29:21;;;;;;;3.77;2.30;;;;;;;-145.18;100.00;47445.72;4933434;29;20031;-72
2023/04/26 10:32:03;;;;;;;7.43;2.03;;;;;;;-145.18;100.00;47459.41;4933518;29;20274;-72
2023/04/26 10:34:30;;;;;;;3.37;1.90;;;;;;;-145.18;100.00;47437.91;4933685;29;20377;-72
2023/04/26 10:37:28;;;;;;;9.73;2.10;;;;;;;-145.18;100.00;47445.72;4933407;29;20308;-72
2023/04/26 10:40:24;;;;;;;10.83;3.27;;;;;;;-145.18;100.00;47441.81;4900515;29;20274;-72
2023/04/26 10:42:49;;;;;;;4.77;2.00;;;;;;;-145.18;100.00;47451.56;4933227;29;20274;-72
2023/04/26 10:45:29;;;;;;;4.20;2.03;;;;;;;-145.18;100.00;47430.09;4933045;29;20282;-72
2023/04/26 10:48:18;;;;;;;5.50;2.30;;;;;;;-145.18;100.00;47426.19;4932911;29;20433;-72
2023/04/26 10:53:24;;;;;;;4.83;2.20;;;;;;;-145.18;100.00;47430.09;4933177;29;20274;-72
2023/04/26 10:55:51;;;;;;;7.33;1.90;;;;;;;-145.18;100.00;47389.06;4931470;29;20281;-72
2023/04/26 10:58:33;;;;;;;3.73;2.17;;;;;;;-145.18;100.00;47367.56;4933004;29;20107;-72
2023/04/26 11:01:12;;;;;;;7.47;2.00;;;;;;;-145.18;100.00;47398.81;4930030;29;20301;-72
2023/04/26 11:03:39;;;;;;;9.77;2.07;;;;;;;-145.18;100.00;47406.63;4931366;29;20051;-72
2023/04/26 11:06:08;;;;;;;4.07;1.77;;;;;;;-145.18;100.00;47443.75;4932179;29;20273;-72
2023/04/26 11:08:35;;;;;;;2.77;1.50;;;;;;;-145.18;100.00;47414.47;4933070;29;20285;-72